Kezdőlap
METAR-TAF:

METAR-TAF

Repülőterek :

Kota Bharu, Malajzia

földrajzi szélesség: 06-10N, földrajzi hosszúság: 102-17E, magasság: 5 m

Jelenlegi meteorológiai megfigyelések

A jelentés 1 órával és 0 perccel ezelõtt készült, 02:00 UTC
Különbözõ irányokból fújó szél 2 kt
Hőmérséklet 28°C
Páratartalom 70%
Légköri nyomás 1008 hPa
Látótávolság 10 km, vagy több
Kevés felhő 2000 lábon

METAR: WMKC 220200Z VRB02KT 9999 FEW020 28/22 Q1008

Idő: 11:00 (03:00 UTC)

Előrejelzés

A jelentés 4 órával és 0 perccel ezelõtt készült, 23:00 UTC
Az előrejelzés 22-én 00 óra UTC és 23-én 00 óra UTC között érvényes
Nyugati szél 10 kt
Látótávolság 10 km, vagy több
Kevés felhő 2000 lábon

TAF: WMKC 212300Z 2200/2300 26010KT 9999 FEW020

Meteorológiai megfigyelések és előrejelzések több, mint 4000 repülőtéren (METAR és TAF jelentéseket).

A térképen piros és sárga pontok jelzik az elérhető meteorológiai állomásokat.

Mozgassa az egeret a pont fölött, hogy megjelenjen az állomás neve.

Azután kattintson az időjárási megfigyelések és előrejelzések megtekintéséhez.

A térkép megváltoztatása: kattintson a fekete keresztel jelölt zöld gombra ráközelítéshez, a vonallal jelölt zöld gombra távolításhoz, vagy a zöld nyilakra a szomszédos térképek eléréséhez.


METAR-TAF: